Time;durP1;ratioP1;P1;durP2;ratioP2;P2;SDS_P1;SDS_P2;PMS_P1;PMS_P2;Temp;Humidity;BMP_temperature;BMP_pressure;BME280_temperature;BME280_humidity;BME280_pressure;Samples;Min_cycle;Max_cycle;Signal;HPM_P1;HPM_P2
2023/11/28 00:00:30;;;;;;;9.25;3.92;;;;;;;0.32;100.00;99549.78;4954641;28;20035;-73
2023/11/28 00:02:56;;;;;;;10.63;4.50;;;;;;;0.38;100.00;99549.28;4988058;28;20049;-74
2023/11/28 00:05:21;;;;;;;5.22;3.55;;;;;;;0.43;100.00;99541.88;4970645;28;20049;-77
2023/11/28 00:07:47;;;;;;;7.03;3.55;;;;;;;0.35;100.00;99536.41;4988176;28;20062;-74
2023/11/28 00:10:12;;;;;;;7.35;3.70;;;;;;;0.30;100.00;99518.41;4987941;28;20037;-73
2023/11/28 00:12:37;;;;;;;6.55;3.92;;;;;;;0.43;100.00;99531.38;4970333;28;20041;-73
2023/11/28 00:15:03;;;;;;;5.25;3.13;;;;;;;0.43;100.00;99520.03;4970612;28;20165;-73
2023/11/28 00:17:28;;;;;;;4.68;3.10;;;;;;;0.36;100.00;99496.06;4963180;28;20031;-73
2023/11/28 00:19:54;;;;;;;10.60;3.60;;;;;;;0.34;100.00;99492.75;4982921;28;20030;-73
2023/11/28 00:22:19;;;;;;;4.88;2.88;;;;;;;0.38;100.00;99471.34;4987239;28;20030;-73
2023/11/28 00:24:44;;;;;;;6.60;3.00;;;;;;;0.33;100.00;99468.28;4970231;28;20049;-74
2023/11/28 00:27:10;;;;;;;6.88;3.03;;;;;;;0.45;100.00;99470.84;4987478;28;20042;-74
2023/11/28 00:29:35;;;;;;;6.57;4.05;;;;;;;0.40;100.00;99452.84;4970130;28;20030;-73
2023/11/28 00:32:03;;;;;;;5.85;2.90;;;;;;;0.28;100.00;99427.59;4959462;28;20034;-73
2023/11/28 00:34:29;;;;;;;6.03;3.22;;;;;;;0.47;100.00;99440.00;4978164;28;20170;-73
2023/11/28 00:36:54;;;;;;;6.97;3.05;;;;;;;0.50;100.00;99426.66;4966039;28;20070;-73
2023/11/28 00:39:20;;;;;;;4.07;3.03;;;;;;;0.39;100.00;99404.72;4970222;28;20038;-73
2023/11/28 00:41:45;;;;;;;6.85;3.75;;;;;;;0.51;100.00;99420.41;4954058;28;20041;-73
2023/11/28 00:44:11;;;;;;;5.70;2.63;;;;;;;0.45;100.00;99381.56;4983644;28;20744;-74
2023/11/28 00:46:43;;;;;;;4.35;2.60;;;;;;;0.46;100.00;99393.72;4971034;28;20026;-75
2023/11/28 00:49:14;;;;;;;6.93;3.10;;;;;;;0.54;100.00;99401.75;4969815;28;20038;-75
2023/11/28 00:51:43;;;;;;;6.53;3.00;;;;;;;0.43;100.00;99384.31;4969567;28;20511;-74
2023/11/28 00:54:09;;;;;;;6.40;3.10;;;;;;;0.49;100.00;99401.31;4987154;28;20447;-74
2023/11/28 00:56:35;;;;;;;5.18;3.20;;;;;;;0.50;100.00;99392.50;4969569;28;20038;-74
2023/11/28 00:59:00;;;;;;;6.43;3.70;;;;;;;0.64;100.00;99405.28;4969876;28;20040;-75
2023/11/28 01:01:26;;;;;;;7.03;3.85;;;;;;;0.54;100.00;99391.25;4985295;28;20041;-74
2023/11/28 01:03:51;;;;;;;12.63;3.17;;;;;;;0.53;100.00;99397.47;4969560;28;20489;-75
2023/11/28 01:06:19;;;;;;;4.75;2.88;;;;;;;0.58;100.00;99392.66;4969374;28;20061;-75
2023/11/28 01:08:45;;;;;;;4.63;3.20;;;;;;;0.57;100.00;99393.63;4969541;28;20072;-74
2023/11/28 01:11:10;;;;;;;8.88;3.55;;;;;;;0.54;100.00;99402.63;4985354;28;20026;-74
2023/11/28 01:13:36;;;;;;;6.60;3.13;;;;;;;0.56;100.00;99400.69;4969276;28;20655;-74
2023/11/28 01:16:02;;;;;;;5.57;3.58;;;;;;;0.63;100.00;99401.81;4985612;28;20567;-74
2023/11/28 01:18:27;;;;;;;;;;;;;;;0.59;100.00;99394.34;4969717;28;20033;-74
2023/11/28 01:20:52;;;;;;;5.30;3.17;;;;;;;0.56;100.00;99400.69;4985251;28;19994;-74
2023/11/28 01:23:18;;;;;;;6.00;3.47;;;;;;;0.61;100.00;99413.44;4985065;28;20035;-74
2023/11/28 01:25:43;;;;;;;9.65;3.97;;;;;;;0.60;100.00;99398.63;4969054;28;20084;-74
2023/11/28 01:28:27;;;;;;;6.15;3.97;;;;;;;0.58;100.00;99408.41;4978374;28;20077;-74
2023/11/28 01:31:11;;;;;;;6.82;3.22;;;;;;;0.51;100.00;99402.03;4975399;28;20524;-72
2023/11/28 01:33:56;;;;;;;5.35;3.53;;;;;;;0.38;100.00;99395.19;4974938;28;20738;-73
2023/11/28 01:36:40;;;;;;;4.93;3.10;;;;;;;0.60;100.00;99430.13;4979787;28;20109;-74
2023/11/28 01:39:24;;;;;;;9.50;3.30;;;;;;;0.61;100.00;99423.94;4986839;28;20037;-74
2023/11/28 01:41:49;;;;;;;6.60;3.42;;;;;;;0.40;100.00;99398.53;4968922;28;20034;-75
2023/11/28 01:44:15;;;;;;;6.90;3.20;;;;;;;0.38;100.00;99408.34;4967478;28;20038;-74
2023/11/28 01:46:42;;;;;;;5.70;3.13;;;;;;;0.52;100.00;99415.03;4957555;28;20286;-72
2023/11/28 01:49:07;;;;;;;10.13;3.70;;;;;;;0.54;100.00;99433.28;4973694;28;20046;-74
2023/11/28 01:51:34;;;;;;;8.20;3.17;;;;;;;0.51;100.00;99421.25;4968830;28;20397;-74
2023/11/28 01:54:02;;;;;;;7.70;3.38;;;;;;;0.54;100.00;99423.63;4984976;28;20026;-75
2023/11/28 01:56:32;;;;;;;7.18;3.63;;;;;;;0.60;100.00;99433.59;4968627;28;20023;-73
2023/11/28 01:59:01;;;;;;;11.98;3.63;;;;;;;0.52;100.00;99414.22;4968869;28;20030;-75
2023/11/28 02:01:28;;;;;;;5.55;3.28;;;;;;;0.53;100.00;99408.81;4985781;28;20034;-72
2023/11/28 02:03:53;;;;;;;5.65;3.88;;;;;;;0.39;100.00;99385.53;4952688;28;20022;-75
2023/11/28 02:06:18;;;;;;;7.22;3.22;;;;;;;0.41;100.00;99402.81;4986075;28;20092;-74
2023/11/28 02:08:45;;;;;;;3.72;2.70;;;;;;;0.45;100.00;99424.41;4981839;28;20490;-75
2023/11/28 02:11:10;;;;;;;7.18;3.00;;;;;;;0.46;100.00;99418.19;4981877;28;20037;-74
2023/11/28 02:13:36;;;;;;;4.25;2.92;;;;;;;0.29;100.00;99418.78;4987507;28;20030;-71
2023/11/28 02:16:15;;;;;;;9.70;3.00;;;;;;;0.20;100.00;99428.25;4972643;28;20034;-73
2023/11/28 02:18:42;;;;;;;7.82;3.40;;;;;;;0.26;100.00;99456.63;4988540;28;20417;-74
2023/11/28 02:21:12;;;;;;;5.82;3.33;;;;;;;0.28;100.00;99498.47;4959697;28;20034;-75
2023/11/28 02:23:39;;;;;;;6.78;3.15;;;;;;;0.29;100.00;99519.38;4961994;28;20036;-74
2023/11/28 02:26:22;;;;;;;9.23;3.17;;;;;;;0.30;100.00;99494.78;4986204;28;20051;-75
2023/11/28 02:28:47;;;;;;;7.40;3.40;;;;;;;0.31;100.00;99527.13;4947471;28;20793;-73
2023/11/28 02:31:13;;;;;;;6.55;2.67;;;;;;;0.20;100.00;99504.38;4985532;28;20037;-75
2023/11/28 02:33:38;;;;;;;5.28;2.65;;;;;;;0.29;100.00;99508.03;4972148;28;20489;-75
2023/11/28 02:36:04;;;;;;;4.30;3.15;;;;;;;0.26;100.00;99511.75;4972058;28;20072;-74
2023/11/28 02:38:29;;;;;;;11.00;2.85;;;;;;;0.36;100.00;99501.31;4971921;28;20045;-75
2023/11/28 02:40:55;;;;;;;6.70;3.55;;;;;;;0.22;100.00;99480.63;4971831;28;20033;-73
2023/11/28 02:43:20;;;;;;;5.70;3.03;;;;;;;0.32;100.00;99476.28;4971493;28;20829;-75
2023/11/28 02:45:46;;;;;;;5.80;3.00;;;;;;;0.36;100.00;99489.03;4955810;28;20018;-75
2023/11/28 02:48:11;;;;;;;6.35;3.00;;;;;;;0.35;100.00;99478.63;4971644;28;20039;-72
2023/11/28 02:50:39;;;;;;;7.90;2.85;;;;;;;0.43;100.00;99483.28;4988218;28;20475;-73
2023/11/28 02:53:05;;;;;;;9.68;3.30;;;;;;;0.46;100.00;99481.19;4971726;28;20049;-75
2023/11/28 02:55:30;;;;;;;5.13;3.08;;;;;;;0.34;100.00;99459.44;4989060;28;20133;-74
2023/11/28 02:57:58;;;;;;;5.72;3.20;;;;;;;0.41;100.00;99460.59;4968843;28;20043;-72
2023/11/28 03:00:23;;;;;;;7.47;3.70;;;;;;;0.50;100.00;99468.66;4970228;28;20068;-74
2023/11/28 03:02:49;;;;;;;5.57;3.17;;;;;;;0.41;100.00;99439.56;4971366;28;20489;-75
2023/11/28 03:05:14;;;;;;;4.70;3.25;;;;;;;0.46;100.00;99447.06;4969140;28;20092;-74
2023/11/28 03:07:39;;;;;;;7.32;3.83;;;;;;;0.48;100.00;99442.53;4971737;28;20031;-74
2023/11/28 03:10:05;;;;;;;9.57;3.63;;;;;;;0.28;100.00;99401.34;4955445;28;20061;-75
2023/11/28 03:12:31;;;;;;;7.45;3.00;;;;;;;0.31;100.00;99399.31;4980799;28;20045;-74
2023/11/28 03:14:57;;;;;;;6.20;3.03;;;;;;;0.34;100.00;99409.53;4987597;28;20022;-75
2023/11/28 03:17:23;;;;;;;4.65;3.55;;;;;;;0.36;100.00;99402.38;4970841;28;20405;-75
2023/11/28 03:19:49;;;;;;;4.93;2.90;;;;;;;0.41;100.00;99402.81;4974513;28;20037;-75
2023/11/28 03:22:14;;;;;;;8.02;2.80;;;;;;;0.31;100.00;99370.44;4986185;28;20057;-74
2023/11/28 03:24:41;;;;;;;5.82;3.53;;;;;;;0.23;100.00;99369.41;4970232;28;20018;-73
2023/11/28 03:27:07;;;;;;;4.97;3.65;;;;;;;0.11;100.00;99337.16;4988881;28;20410;-75
2023/11/28 03:29:32;;;;;;;7.80;3.70;;;;;;;0.21;100.00;99359.03;4988456;28;20034;-74
2023/11/28 03:31:58;;;;;;;6.00;3.47;;;;;;;0.23;100.00;99335.28;4971390;28;20585;-74
2023/11/28 03:34:23;;;;;;;10.50;3.72;;;;;;;0.23;100.00;99338.75;4954459;28;20096;-74
2023/11/28 03:36:51;;;;;;;8.32;3.58;;;;;;;0.10;100.00;99304.03;4970979;28;20038;-73
2023/11/28 03:39:19;;;;;;;8.82;3.83;;;;;;;0.18;100.00;99312.06;4970883;28;20109;-73
2023/11/28 03:41:48;;;;;;;7.63;4.75;;;;;;;0.19;100.00;99325.06;4970801;28;20030;-74
2023/11/28 03:44:13;;;;;;;8.15;3.97;;;;;;;0.11;100.00;99316.16;4970772;28;20037;-74
2023/11/28 03:46:38;;;;;;;4.43;2.80;;;;;;;-0.07;100.00;99287.06;4967546;28;20026;-73
2023/11/28 03:49:04;;;;;;;5.88;2.70;;;;;;;0.14;100.00;99324.63;4967827;28;20051;-74
2023/11/28 03:51:29;;;;;;;5.07;2.90;;;;;;;-0.01;100.00;99292.63;4970263;28;20038;-75
2023/11/28 03:53:55;;;;;;;5.53;3.15;;;;;;;0.04;100.00;99301.91;4954847;28;20038;-74
2023/11/28 03:56:20;;;;;;;5.45;2.65;;;;;;;-0.01;100.00;99268.19;4988015;28;20038;-75
2023/11/28 03:58:45;;;;;;;5.03;3.13;;;;;;;0.01;100.00;99275.94;4970840;28;20042;-74
2023/11/28 04:01:13;;;;;;;4.95;2.60;;;;;;;0.03;100.00;99287.13;4962524;28;20034;-71
2023/11/28 04:03:38;;;;;;;7.07;3.58;;;;;;;-0.01;100.00;99265.56;4977115;28;20034;-75
2023/11/28 04:06:04;;;;;;;10.80;3.13;;;;;;;-0.10;100.00;99261.09;4969320;28;20026;-74
2023/11/28 04:08:30;;;;;;;;;;;;;;;-0.02;100.00;99295.41;4966002;28;20058;-75
2023/11/28 04:10:55;;;;;;;6.60;2.72;;;;;;;-0.03;100.00;99280.59;4970227;28;20284;-72
2023/11/28 04:13:20;;;;;;;4.93;3.08;;;;;;;-0.06;100.00;99279.06;4954182;28;20080;-75
2023/11/28 04:15:46;;;;;;;6.78;3.22;;;;;;;-0.17;100.00;99259.97;4970332;28;20035;-72
2023/11/28 04:18:11;;;;;;;3.78;2.47;;;;;;;-0.16;100.00;99272.97;4967312;28;20564;-72
2023/11/28 04:20:37;;;;;;;9.63;3.53;;;;;;;-0.02;100.00;99317.22;4969953;28;20116;-75
2023/11/28 04:23:04;;;;;;;7.50;3.25;;;;;;;-0.14;100.00;99315.63;4986290;28;20066;-75
2023/11/28 04:25:30;;;;;;;6.20;3.30;;;;;;;-0.15;100.00;99329.69;4953345;28;20402;-75
2023/11/28 04:27:55;;;;;;;5.97;3.15;;;;;;;-0.19;100.00;99340.56;4970099;28;20096;-73
2023/11/28 04:30:22;;;;;;;9.40;3.50;;;;;;;-0.09;100.00;99384.28;4970134;28;20041;-75
2023/11/28 04:32:47;;;;;;;6.93;4.40;;;;;;;-0.17;100.00;99365.72;4987171;28;20022;-75
2023/11/28 04:35:12;;;;;;;7.05;3.47;;;;;;;-0.28;100.00;99360.53;4969136;28;20122;-74
2023/11/28 04:37:38;;;;;;;5.07;3.15;;;;;;;-0.30;100.00;99386.06;4975584;28;20034;-75
2023/11/28 04:40:07;;;;;;;6.40;3.08;;;;;;;-0.29;100.00;99404.28;4986050;28;20033;-73
2023/11/28 04:42:33;;;;;;;8.50;3.88;;;;;;;-0.29;100.00;99412.16;4973311;28;20061;-75
2023/11/28 04:44:58;;;;;;;5.60;3.25;;;;;;;-0.24;100.00;99438.84;4969695;28;20122;-75
2023/11/28 04:47:24;;;;;;;5.75;3.08;;;;;;;-0.43;100.00;99423.75;4984764;28;20555;-74
2023/11/28 04:49:50;;;;;;;6.72;3.78;;;;;;;-0.45;100.00;99437.97;4969731;28;20544;-74
2023/11/28 04:52:15;;;;;;;7.10;3.17;;;;;;;-0.40;100.00;99463.81;4984075;28;20101;-73
2023/11/28 04:54:41;;;;;;;6.85;3.35;;;;;;;-0.42;100.00;99469.19;4969609;28;20508;-73
2023/11/28 04:57:06;;;;;;;8.70;3.08;;;;;;;-0.41;100.00;99483.13;4966524;28;20034;-71
2023/11/28 04:59:32;;;;;;;7.13;3.30;;;;;;;-0.35;100.00;99498.34;4976932;28;20037;-73
2023/11/28 05:01:57;;;;;;;10.90;3.50;;;;;;;-0.36;100.00;99501.97;4969049;28;20061;-75
2023/11/28 05:04:23;;;;;;;7.45;4.03;;;;;;;-0.48;100.00;99477.56;4984470;28;20034;-75
2023/11/28 05:06:48;;;;;;;6.00;3.60;;;;;;;-0.43;100.00;99485.88;4986812;28;20040;-75
2023/11/28 05:09:19;;;;;;;6.13;3.63;;;;;;;-0.33;100.00;99494.69;4953603;28;20101;-72
2023/11/28 05:11:45;;;;;;;7.93;3.53;;;;;;;-0.38;100.00;99494.19;4965958;28;20121;-75
2023/11/28 05:14:10;;;;;;;5.78;3.47;;;;;;;-0.37;100.00;99488.00;4964970;28;20201;-74
2023/11/28 05:16:36;;;;;;;4.85;2.95;;;;;;;-0.44;100.00;99458.00;4986151;28;20367;-72
2023/11/28 05:19:02;;;;;;;5.63;2.70;;;;;;;-0.42;100.00;99458.72;4969228;28;20101;-71
2023/11/28 05:21:28;;;;;;;8.35;3.60;;;;;;;-0.44;100.00;99458.00;4952813;28;20034;-75
2023/11/28 05:23:56;;;;;;;7.85;3.13;;;;;;;-0.44;100.00;99447.50;4953315;28;20030;-71
2023/11/28 05:26:21;;;;;;;5.10;3.75;;;;;;;-0.38;100.00;99436.50;4986338;28;20037;-74
2023/11/28 05:28:48;;;;;;;6.88;3.80;;;;;;;-0.43;100.00;99422.94;4969086;28;20088;-74
2023/11/28 05:31:14;;;;;;;14.55;3.30;;;;;;;-0.38;100.00;99428.63;4968875;28;20046;-72
2023/11/28 05:33:40;;;;;;;6.20;3.45;;;;;;;-0.38;100.00;99439.13;4968947;28;20026;-74
2023/11/28 05:36:08;;;;;;;5.28;2.78;;;;;;;-0.30;100.00;99446.41;4965862;28;20571;-75
2023/11/28 05:38:34;;;;;;;5.97;3.28;;;;;;;-0.46;100.00;99420.56;4967985;28;21543;-75
2023/11/28 05:40:59;;;;;;;7.82;4.05;;;;;;;-0.51;100.00;99420.94;4968688;28;20030;-75
2023/11/28 05:43:30;;;;;;;9.55;3.50;;;;;;;-0.57;100.00;99437.16;4974936;28;20039;-72
2023/11/28 05:45:56;;;;;;;6.72;3.55;;;;;;;-0.67;100.00;99420.53;4979192;28;20520;-73
2023/11/28 05:48:24;;;;;;;6.30;3.67;;;;;;;-0.36;100.00;99478.34;4951189;28;20062;-74
2023/11/28 05:50:50;;;;;;;6.88;3.72;;;;;;;-0.44;100.00;99437.03;4978610;28;20565;-73
2023/11/28 05:53:16;;;;;;;5.65;3.22;;;;;;;-0.57;100.00;99403.06;4964695;28;20113;-71
2023/11/28 05:55:41;;;;;;;7.90;3.03;;;;;;;-0.48;100.00;99418.06;4968631;28;20492;-72
2023/11/28 05:58:06;;;;;;;5.68;3.05;;;;;;;-0.67;100.00;99384.66;4968935;28;20381;-73
2023/11/28 06:00:34;;;;;;;4.85;2.95;;;;;;;-0.55;100.00;99400.34;4952623;28;20524;-75
2023/11/28 06:03:00;;;;;;;8.18;4.28;;;;;;;-0.44;100.00;99410.78;4968387;28;20034;-75
2023/11/28 06:05:26;;;;;;;7.38;3.63;;;;;;;-0.41;100.00;99399.22;4986462;28;20034;-72
2023/11/28 06:07:52;;;;;;;4.63;3.30;;;;;;;-0.40;100.00;99393.00;4968709;28;20041;-71
2023/11/28 06:10:17;;;;;;;;;;;;;;;-0.59;100.00;99360.41;4952861;28;20047;-74
2023/11/28 06:12:42;;;;;;;7.32;4.13;;;;;;;-0.56;100.00;99373.31;4964997;28;20052;-73
2023/11/28 06:15:08;;;;;;;7.68;3.53;;;;;;;-0.50;100.00;99406.88;4965223;28;20440;-75
2023/11/28 06:17:34;;;;;;;7.10;4.40;;;;;;;-0.49;100.00;99394.63;4966005;28;20030;-74
2023/11/28 06:19:59;;;;;;;;;;;;;;;-0.35;100.00;99417.06;4952804;28;20511;-75
2023/11/28 06:22:25;;;;;;;4.55;2.88;;;;;;;-0.57;100.00;99395.22;4984398;28;20028;-75
2023/11/28 06:24:51;;;;;;;7.15;2.83;;;;;;;-0.50;100.00;99406.88;4968564;28;20038;-71
2023/11/28 06:27:16;;;;;;;3.17;2.08;;;;;;;-0.63;100.00;99369.50;4985988;28;20065;-74
2023/11/28 06:29:43;;;;;;;3.65;2.38;;;;;;;-0.66;100.00;99348.78;4985660;28;20118;-75
2023/11/28 06:32:09;;;;;;;4.43;2.65;;;;;;;-0.75;100.00;99320.69;4985747;28;20530;-75
2023/11/28 06:34:34;;;;;;;5.57;2.35;;;;;;;-0.71;100.00;99340.47;4981265;28;20043;-75
2023/11/28 06:37:00;;;;;;;3.72;2.38;;;;;;;-0.71;100.00;99330.81;4941365;28;20037;-75
2023/11/28 06:39:26;;;;;;;7.45;2.70;;;;;;;-0.82;100.00;99327.38;4983759;28;20761;-74
2023/11/28 06:41:51;;;;;;;6.30;3.33;;;;;;;-0.68;100.00;99372.50;4968200;28;20482;-74
2023/11/28 06:44:20;;;;;;;6.57;2.83;;;;;;;-0.67;100.00;99375.97;4961662;28;20046;-74
2023/11/28 06:46:49;;;;;;;6.38;3.67;;;;;;;-0.68;100.00;99406.59;4983310;28;20089;-74
2023/11/28 06:49:15;;;;;;;8.52;4.43;;;;;;;-0.74;100.00;99424.59;4967167;28;20046;-74
2023/11/28 06:51:40;;;;;;;7.85;3.20;;;;;;;-0.69;100.00;99469.59;4953976;28;20034;-73
2023/11/28 06:54:05;;;;;;;6.38;3.67;;;;;;;-0.72;100.00;99477.72;4952404;28;20144;-73
2023/11/28 06:56:31;;;;;;;9.50;3.35;;;;;;;-0.77;100.00;99469.38;4977543;28;20026;-72
2023/11/28 06:58:56;;;;;;;4.72;3.50;;;;;;;-0.83;100.00;99475.09;4968330;28;20081;-73
2023/11/28 07:01:23;;;;;;;10.05;3.65;;;;;;;-0.72;100.00;99504.75;4987999;28;20056;-74
2023/11/28 07:03:49;;;;;;;6.05;2.80;;;;;;;-0.73;100.00;99483.91;4963316;28;20386;-73
2023/11/28 07:06:14;;;;;;;12.25;3.60;;;;;;;-0.85;100.00;99481.28;4971477;28;20035;-73
2023/11/28 07:08:40;;;;;;;4.70;3.50;;;;;;;-0.78;100.00;99499.16;4987820;28;20026;-72
2023/11/28 07:11:21;;;;;;;8.60;3.58;;;;;;;-0.75;100.00;99507.63;4988939;28;20457;-73
2023/11/28 07:13:47;;;;;;;6.63;3.88;;;;;;;-0.66;100.00;99519.16;4971622;28;20038;-73
2023/11/28 07:16:14;;;;;;;11.05;4.53;;;;;;;-0.68;100.00;99510.56;4968314;28;20046;-73
2023/11/28 07:18:39;;;;;;;7.40;3.67;;;;;;;-0.65;100.00;99518.22;4955130;28;20441;-74
2023/11/28 07:21:05;;;;;;;9.52;4.32;;;;;;;-0.75;100.00;99488.44;4988364;28;20030;-73
2023/11/28 07:23:30;;;;;;;7.53;4.15;;;;;;;-0.75;100.00;99499.75;4969801;28;20058;-74
2023/11/28 07:25:56;;;;;;;6.22;3.70;;;;;;;-0.86;100.00;99487.50;4988772;28;20034;-73
2023/11/28 07:28:21;;;;;;;6.47;3.60;;;;;;;-0.82;100.00;99492.50;4988852;28;20070;-73
2023/11/28 07:30:47;;;;;;;7.82;3.08;;;;;;;-0.81;100.00;99479.28;4988706;28;20023;-73
2023/11/28 07:33:13;;;;;;;10.57;3.80;;;;;;;-0.79;100.00;99458.19;4988547;28;20054;-73
2023/11/28 07:35:39;;;;;;;5.10;3.58;;;;;;;-0.68;100.00;99445.03;4988375;28;20041;-73
2023/11/28 07:38:04;;;;;;;6.65;3.50;;;;;;;-0.32;100.00;99547.97;4988780;28;20109;-73
2023/11/28 07:40:32;;;;;;;5.00;2.90;;;;;;;-0.37;100.00;99476.69;4987311;28;20099;-73
2023/11/28 07:42:57;;;;;;;7.97;3.38;;;;;;;-0.68;100.00;99361.16;4988194;28;20030;-74
2023/11/28 07:45:23;;;;;;;4.85;2.95;;;;;;;-0.63;100.00;99353.78;4970842;28;20401;-73
2023/11/28 07:47:48;;;;;;;5.13;3.42;;;;;;;-0.65;100.00;99319.00;4986063;28;20417;-73
2023/11/28 07:50:15;;;;;;;7.15;3.10;;;;;;;-0.82;100.00;99241.75;4967918;28;20038;-74
2023/11/28 07:52:40;;;;;;;;;;;;;;;-0.81;100.00;99206.72;4970786;28;20056;-73
2023/11/28 07:55:07;;;;;;;7.65;3.10;;;;;;;-0.92;100.00;99184.03;4988452;28;20568;-73
2023/11/28 07:57:32;;;;;;;4.82;2.55;;;;;;;-0.69;100.00;99208.31;4988445;28;20135;-72
2023/11/28 07:59:58;;;;;;;5.35;3.17;;;;;;;-0.62;100.00;99213.06;4988500;28;20109;-74
2023/11/28 08:02:23;;;;;;;4.75;2.80;;;;;;;-0.70;100.00;99179.63;4988065;28;20121;-74
2023/11/28 08:04:48;;;;;;;4.10;2.55;;;;;;;-0.82;100.00;99150.06;4988191;28;20057;-73
2023/11/28 08:07:14;;;;;;;8.63;2.45;;;;;;;-0.66;100.00;99170.53;4988439;28;20038;-73
2023/11/28 08:09:39;;;;;;;5.30;3.17;;;;;;;-0.74;100.00;99152.03;4986828;28;20081;-73
2023/11/28 08:12:04;;;;;;;5.78;2.95;;;;;;;-0.75;100.00;99168.69;4970078;28;20073;-73
2023/11/28 08:14:30;;;;;;;7.15;3.13;;;;;;;-0.66;100.00;99181.03;4970647;28;20034;-74
2023/11/28 08:16:55;;;;;;;3.88;2.50;;;;;;;-0.83;100.00;99131.81;4983633;28;20035;-73
2023/11/28 08:19:20;;;;;;;5.97;2.75;;;;;;;-0.91;100.00;99099.25;4974400;28;20049;-74
2023/11/28 08:21:46;;;;;;;6.90;2.58;;;;;;;-0.79;100.00;99109.66;4970542;28;20031;-73
2023/11/28 08:24:11;;;;;;;8.25;2.92;;;;;;;-0.79;100.00;99107.03;4980247;28;20041;-73
2023/11/28 08:26:36;;;;;;;4.72;2.65;;;;;;;-0.68;100.00;99093.81;4958931;28;20046;-74
2023/11/28 08:29:02;;;;;;;5.18;3.20;;;;;;;-0.79;100.00;99038.91;4965026;28;20034;-73
2023/11/28 08:31:27;;;;;;;34.78;3.13;;;;;;;-0.71;100.00;99010.22;4986666;28;20030;-73
2023/11/28 08:33:52;;;;;;;4.20;2.08;;;;;;;-0.64;100.00;99011.34;4969275;28;20073;-74
2023/11/28 08:36:18;;;;;;;9.80;2.95;;;;;;;-0.40;100.00;99039.00;4954059;28;20034;-73
2023/11/28 08:38:43;;;;;;;7.18;2.60;;;;;;;-0.55;100.00;98947.63;4970329;28;20034;-73
2023/11/28 08:41:10;;;;;;;6.65;2.58;;;;;;;-0.58;100.00;98929.56;4987517;28;20109;-74
2023/11/28 08:43:36;;;;;;;4.90;2.22;;;;;;;-0.65;100.00;98904.88;4969479;28;20140;-73
2023/11/28 08:46:01;;;;;;;4.97;2.58;;;;;;;-0.70;100.00;98873.00;4987583;28;20061;-73
2023/11/28 08:48:27;;;;;;;3.30;2.65;;;;;;;-0.57;100.00;98883.19;4987558;28;20045;-73
2023/11/28 08:50:52;;;;;;;6.47;2.10;;;;;;;-0.55;100.00;98832.28;4985488;28;20402;-73
2023/11/28 08:53:17;;;;;;;3.78;1.83;;;;;;;-0.60;100.00;98757.69;4987339;28;20112;-73
2023/11/28 08:55:43;;;;;;;4.22;2.40;;;;;;;-0.76;100.00;98667.34;4985824;28;20104;-74
2023/11/28 08:58:09;;;;;;;5.53;2.50;;;;;;;-0.81;100.00;98669.56;4970089;28;20030;-73
2023/11/28 09:00:35;;;;;;;4.88;2.58;;;;;;;-0.66;100.00;98717.09;4987085;28;20034;-73
2023/11/28 09:03:01;;;;;;;5.18;2.42;;;;;;;-0.63;100.00;98698.50;4987195;28;20026;-73
2023/11/28 09:05:27;;;;;;;4.30;2.13;;;;;;;-0.77;100.00;98628.16;4986988;28;20073;-73
2023/11/28 09:07:52;;;;;;;5.07;2.03;;;;;;;-0.58;100.00;98632.56;4969978;28;20026;-73
2023/11/28 09:10:18;;;;;;;3.10;2.10;;;;;;;-0.69;100.00;98575.88;4987155;28;20042;-73
2023/11/28 09:12:47;;;;;;;2.65;2.08;;;;;;;-0.66;100.00;98542.38;4969404;28;20042;-73
2023/11/28 09:15:14;;;;;;;6.70;2.65;;;;;;;-0.82;100.00;98494.16;4987165;28;20041;-73
2023/11/28 09:17:42;;;;;;;2.53;1.80;;;;;;;-0.65;100.00;98585.94;4986966;28;20034;-73
2023/11/28 09:20:08;;;;;;;2.97;2.00;;;;;;;-0.73;100.00;98554.38;4985049;28;20028;-74
2023/11/28 09:22:34;;;;;;;;;;;;;;;-0.79;100.00;98504.34;4975807;28;20461;-73
2023/11/28 09:24:59;;;;;;;4.72;1.85;;;;;;;-0.76;100.00;98519.78;4984808;28;19913;-73
2023/11/28 09:27:25;;;;;;;7.55;3.38;;;;;;;-0.68;100.00;98502.38;4969054;28;20074;-73
2023/11/28 09:29:50;;;;;;;3.60;1.70;;;;;;;-0.70;100.00;98449.28;4983672;28;20127;-73
2023/11/28 09:32:15;;;;;;;6.25;2.15;;;;;;;-0.54;100.00;98450.41;4983422;28;20038;-73
2023/11/28 09:34:43;;;;;;;4.10;1.73;;;;;;;-0.62;100.00;98353.38;4981458;28;20490;-73
2023/11/28 09:37:09;;;;;;;2.97;1.65;;;;;;;-0.60;100.00;98349.63;4987019;28;20045;-73
2023/11/28 09:39:34;;;;;;;3.65;1.92;;;;;;;-0.53;100.00;98349.84;4973104;28;20038;-73
2023/11/28 09:42:05;;;;;;;3.25;1.63;;;;;;;-0.48;100.00;98314.34;4986621;28;20104;-74
2023/11/28 09:44:34;;;;;;;4.00;2.08;;;;;;;-0.40;100.00;98287.34;4969103;28;20042;-73
2023/11/28 09:47:06;;;;;;;2.33;1.80;;;;;;;-0.12;100.00;98268.84;4969330;28;20033;-73
2023/11/28 09:49:43;;;;;;;2.15;1.83;;;;;;;-0.33;100.00;98170.44;4969237;28;20039;-73
2023/11/28 09:52:10;;;;;;;4.80;2.05;;;;;;;-0.34;100.00;98173.19;4969205;28;20038;-73
2023/11/28 09:54:38;;;;;;;2.92;1.55;;;;;;;-0.26;100.00;98194.19;4968964;28;20038;-73
2023/11/28 09:57:06;;;;;;;24.05;2.40;;;;;;;-0.43;100.00;98130.38;4963745;28;20030;-73
2023/11/28 09:59:38;;;;;;;4.53;1.63;;;;;;;-0.45;100.00;98109.56;4968727;28;20046;-73
2023/11/28 10:02:04;;;;;;;2.97;1.67;;;;;;;-0.52;100.00;98082.31;4980507;28;20117;-74
2023/11/28 10:04:29;;;;;;;4.78;2.05;;;;;;;-0.59;100.00;98060.34;4986479;28;20105;-73
2023/11/28 10:06:58;;;;;;;3.08;1.45;;;;;;;-0.51;100.00;98152.13;4968917;28;20227;-73
2023/11/28 10:09:24;;;;;;;2.97;1.75;;;;;;;-0.52;100.00;98196.84;4986342;28;20117;-73
2023/11/28 10:11:53;;;;;;;4.43;1.73;;;;;;;-0.71;100.00;98079.94;4984457;28;20110;-73
2023/11/28 10:14:18;;;;;;;4.95;1.42;;;;;;;-0.71;100.00;98098.28;4969326;28;20096;-73
2023/11/28 10:16:51;;;;;;;4.70;1.63;;;;;;;-0.59;100.00;98128.47;4981497;28;20445;-74
2023/11/28 10:19:17;;;;;;;5.57;2.08;;;;;;;-0.66;100.00;98064.56;4947473;28;20045;-73
2023/11/28 10:21:43;;;;;;;6.63;1.98;;;;;;;-0.53;100.00;98098.22;4981407;28;20129;-73
2023/11/28 10:24:09;;;;;;;4.13;1.63;;;;;;;-0.62;100.00;97986.47;4969113;28;20038;-72
2023/11/28 10:26:36;;;;;;;2.45;1.50;;;;;;;-0.67;100.00;97990.38;4984985;28;20096;-73
2023/11/28 10:29:03;;;;;;;4.10;2.45;;;;;;;-0.57;100.00;97956.19;4962830;28;20203;-73
2023/11/28 10:31:28;;;;;;;2.58;1.20;;;;;;;-0.71;100.00;97783.88;4968576;28;20408;-74
2023/11/28 10:33:56;;;;;;;2.97;1.40;;;;;;;-0.60;100.00;97841.22;4969253;28;20031;-73
2023/11/28 10:36:22;;;;;;;2.33;1.65;;;;;;;-0.61;100.00;97841.38;4989793;28;20045;-73
2023/11/28 10:38:47;;;;;;;2.80;1.63;;;;;;;-0.69;100.00;97753.91;4970788;28;20168;-72
2023/11/28 10:41:12;;;;;;;2.58;1.30;;;;;;;-0.64;100.00;97754.22;4975377;28;20104;-73
2023/11/28 10:43:38;;;;;;;2.88;1.60;;;;;;;-0.63;100.00;97721.00;4989677;28;20036;-73
2023/11/28 10:46:05;;;;;;;8.52;2.25;;;;;;;-0.76;100.00;97534.69;4989726;28;20154;-73
2023/11/28 10:48:30;;;;;;;3.15;1.52;;;;;;;-0.91;100.00;97459.44;4988954;28;20495;-73
2023/11/28 10:50:57;;;;;;;2.13;1.38;;;;;;;-0.69;100.00;97498.97;4985514;28;20581;-72
2023/11/28 10:53:24;;;;;;;3.90;1.10;;;;;;;-0.56;100.00;97445.97;4988497;28;20501;-73
2023/11/28 10:55:51;;;;;;;2.75;1.42;;;;;;;-0.67;100.00;97356.31;4970460;28;20117;-73
2023/11/28 10:58:17;;;;;;;4.10;1.85;;;;;;;-0.66;100.00;97300.31;4989412;28;20042;-74
2023/11/28 11:00:45;;;;;;;3.08;2.00;;;;;;;-0.75;100.00;97288.28;4988138;28;20077;-73
2023/11/28 11:03:15;;;;;;;2.63;1.10;;;;;;;-0.55;100.00;97335.75;4989409;28;20046;-73
2023/11/28 11:05:43;;;;;;;2.90;1.63;;;;;;;-0.44;100.00;97298.66;4984231;28;20073;-73
2023/11/28 11:08:10;;;;;;;4.30;1.65;;;;;;;-0.19;100.00;97382.34;4969822;28;20037;-73
2023/11/28 11:10:39;;;;;;;2.58;1.40;;;;;;;-0.16;100.00;97374.13;4989402;28;20386;-73
2023/11/28 11:13:13;;;;;;;6.85;2.33;;;;;;;0.45;100.00;97549.09;4971689;28;20121;-73
2023/11/28 11:16:01;;;;;;;5.38;1.38;;;;;;;0.69;100.00;97404.44;4970213;28;20037;-73
2023/11/28 11:18:34;;;;;;;1.63;1.00;;;;;;;0.34;100.00;97217.84;4984423;28;20065;-73
2023/11/28 11:21:43;;;;;;;1.75;1.20;;;;;;;0.33;100.00;97190.00;4984018;28;20101;-73
2023/11/28 11:24:16;;;;;;;1.50;1.10;;;;;;;0.24;100.00;97145.69;4953081;28;20042;-73
2023/11/28 11:26:45;;;;;;;1.67;1.02;;;;;;;1.07;100.00;97467.38;4970122;28;20532;-73